sensor_id;sensor_type;location;lat;lon;timestamp;P1;durP1;ratioP1;P2;durP2;ratioP2
68225;SDS011;55045;49.410;11.030;2022-09-09T00:01:28;4.65;;;2.75;;
68225;SDS011;55045;49.410;11.030;2022-09-09T00:04:38;3.13;;;2.80;;
68225;SDS011;55045;49.410;11.030;2022-09-09T00:07:45;2.50;;;2.30;;
68225;SDS011;55045;49.410;11.030;2022-09-09T00:10:51;4.45;;;2.88;;
68225;SDS011;55045;49.410;11.030;2022-09-09T00:14:03;2.95;;;2.55;;
68225;SDS011;55045;49.410;11.030;2022-09-09T00:17:17;6.63;;;2.65;;
68225;SDS011;55045;49.410;11.030;2022-09-09T00:20:35;6.60;;;2.70;;
68225;SDS011;55045;49.410;11.030;2022-09-09T00:23:48;4.05;;;2.70;;
68225;SDS011;55045;49.410;11.030;2022-09-09T00:26:56;5.75;;;2.85;;
68225;SDS011;55045;49.410;11.030;2022-09-09T00:30:13;4.70;;;2.80;;
68225;SDS011;55045;49.410;11.030;2022-09-09T00:33:22;5.30;;;3.10;;
68225;SDS011;55045;49.410;11.030;2022-09-09T00:36:27;3.63;;;2.97;;
68225;SDS011;55045;49.410;11.030;2022-09-09T00:39:32;2.90;;;2.17;;
68225;SDS011;55045;49.410;11.030;2022-09-09T00:42:41;5.15;;;2.92;;
68225;SDS011;55045;49.410;11.030;2022-09-09T00:45:55;2.70;;;2.35;;
68225;SDS011;55045;49.410;11.030;2022-09-09T00:49:12;3.97;;;2.80;;
68225;SDS011;55045;49.410;11.030;2022-09-09T00:52:25;6.38;;;2.88;;
68225;SDS011;55045;49.410;11.030;2022-09-09T00:55:37;3.10;;;2.65;;
68225;SDS011;55045;49.410;11.030;2022-09-09T00:58:46;4.47;;;2.30;;
68225;SDS011;55045;49.410;11.030;2022-09-09T01:01:56;6.85;;;2.70;;
68225;SDS011;55045;49.410;11.030;2022-09-09T01:05:02;2.65;;;2.30;;
68225;SDS011;55045;49.410;11.030;2022-09-09T01:08:11;6.20;;;2.65;;
68225;SDS011;55045;49.410;11.030;2022-09-09T01:11:32;4.35;;;2.60;;
68225;SDS011;55045;49.410;11.030;2022-09-09T01:14:47;3.22;;;2.92;;
68225;SDS011;55045;49.410;11.030;2022-09-09T01:17:56;3.55;;;3.00;;
68225;SDS011;55045;49.410;11.030;2022-09-09T01:21:08;3.42;;;2.45;;
68225;SDS011;55045;49.410;11.030;2022-09-09T01:24:22;3.00;;;2.33;;
68225;SDS011;55045;49.410;11.030;2022-09-09T01:27:59;4.68;;;2.60;;
68225;SDS011;55045;49.410;11.030;2022-09-09T01:31:06;3.33;;;2.45;;
68225;SDS011;55045;49.410;11.030;2022-09-09T01:34:18;3.00;;;2.20;;
68225;SDS011;55045;49.410;11.030;2022-09-09T01:37:22;3.40;;;2.55;;
68225;SDS011;55045;49.410;11.030;2022-09-09T01:40:26;4.28;;;2.42;;
68225;SDS011;55045;49.410;11.030;2022-09-09T01:43:33;2.67;;;2.35;;
68225;SDS011;55045;49.410;11.030;2022-09-09T01:46:36;3.03;;;2.40;;
68225;SDS011;55045;49.410;11.030;2022-09-09T01:49:45;6.15;;;2.55;;
68225;SDS011;55045;49.410;11.030;2022-09-09T01:52:56;5.40;;;2.35;;
68225;SDS011;55045;49.410;11.030;2022-09-09T01:56:07;7.60;;;2.55;;
68225;SDS011;55045;49.410;11.030;2022-09-09T01:59:24;2.10;;;1.98;;
68225;SDS011;55045;49.410;11.030;2022-09-09T02:02:43;4.68;;;2.42;;
68225;SDS011;55045;49.410;11.030;2022-09-09T02:05:59;3.05;;;2.20;;
68225;SDS011;55045;49.410;11.030;2022-09-09T02:09:12;3.20;;;2.50;;
68225;SDS011;55045;49.410;11.030;2022-09-09T02:12:18;3.03;;;2.22;;
68225;SDS011;55045;49.410;11.030;2022-09-09T02:15:32;2.85;;;2.10;;
68225;SDS011;55045;49.410;11.030;2022-09-09T02:18:40;6.10;;;2.55;;
68225;SDS011;55045;49.410;11.030;2022-09-09T02:21:53;3.63;;;2.47;;
68225;SDS011;55045;49.410;11.030;2022-09-09T02:24:59;5.82;;;2.58;;
68225;SDS011;55045;49.410;11.030;2022-09-09T02:28:06;2.33;;;2.13;;
68225;SDS011;55045;49.410;11.030;2022-09-09T02:31:13;3.35;;;2.28;;
68225;SDS011;55045;49.410;11.030;2022-09-09T02:34:18;5.07;;;2.42;;
68225;SDS011;55045;49.410;11.030;2022-09-09T02:37:26;6.22;;;2.40;;
68225;SDS011;55045;49.410;11.030;2022-09-09T02:40:35;3.13;;;2.28;;
68225;SDS011;55045;49.410;11.030;2022-09-09T02:43:38;6.45;;;2.15;;
68225;SDS011;55045;49.410;11.030;2022-09-09T02:46:58;3.33;;;2.13;;
68225;SDS011;55045;49.410;11.030;2022-09-09T02:50:12;5.50;;;2.50;;
68225;SDS011;55045;49.410;11.030;2022-09-09T02:53:19;2.83;;;2.25;;
68225;SDS011;55045;49.410;11.030;2022-09-09T02:56:27;6.38;;;2.78;;
68225;SDS011;55045;49.410;11.030;2022-09-09T02:59:36;4.68;;;2.95;;
68225;SDS011;55045;49.410;11.030;2022-09-09T03:02:41;4.55;;;2.78;;
68225;SDS011;55045;49.410;11.030;2022-09-09T03:05:45;3.78;;;2.70;;
68225;SDS011;55045;49.410;11.030;2022-09-09T03:08:48;4.03;;;2.60;;
68225;SDS011;55045;49.410;11.030;2022-09-09T03:11:57;2.97;;;2.40;;
68225;SDS011;55045;49.410;11.030;2022-09-09T03:15:01;3.05;;;2.60;;
68225;SDS011;55045;49.410;11.030;2022-09-09T03:18:07;6.38;;;3.13;;
68225;SDS011;55045;49.410;11.030;2022-09-09T03:21:10;3.28;;;2.80;;
68225;SDS011;55045;49.410;11.030;2022-09-09T03:24:15;4.22;;;2.60;;
68225;SDS011;55045;49.410;11.030;2022-09-09T03:27:19;3.65;;;2.58;;
68225;SDS011;55045;49.410;11.030;2022-09-09T03:34:15;3.80;;;2.70;;
68225;SDS011;55045;49.410;11.030;2022-09-09T03:37:20;4.22;;;2.70;;
68225;SDS011;55045;49.410;11.030;2022-09-09T03:40:25;5.88;;;3.00;;
68225;SDS011;55045;49.410;11.030;2022-09-09T03:43:28;10.02;;;2.70;;
68225;SDS011;55045;49.410;11.030;2022-09-09T03:46:32;4.00;;;2.63;;
68225;SDS011;55045;49.410;11.030;2022-09-09T03:49:38;3.60;;;2.40;;
68225;SDS011;55045;49.410;11.030;2022-09-09T03:52:41;6.00;;;2.40;;
68225;SDS011;55045;49.410;11.030;2022-09-09T03:55:53;6.32;;;2.90;;
68225;SDS011;55045;49.410;11.030;2022-09-09T04:02:03;4.32;;;2.63;;
68225;SDS011;55045;49.410;11.030;2022-09-09T04:05:09;3.30;;;2.20;;
68225;SDS011;55045;49.410;11.030;2022-09-09T04:08:15;2.45;;;2.10;;
68225;SDS011;55045;49.410;11.030;2022-09-09T04:11:18;4.10;;;2.60;;
68225;SDS011;55045;49.410;11.030;2022-09-09T04:14:24;2.67;;;2.25;;
68225;SDS011;55045;49.410;11.030;2022-09-09T04:17:31;5.00;;;2.60;;
68225;SDS011;55045;49.410;11.030;2022-09-09T04:20:36;3.15;;;2.40;;
68225;SDS011;55045;49.410;11.030;2022-09-09T04:23:41;3.78;;;2.83;;
68225;SDS011;55045;49.410;11.030;2022-09-09T04:27:00;4.45;;;2.70;;
68225;SDS011;55045;49.410;11.030;2022-09-09T04:30:13;4.03;;;2.78;;
68225;SDS011;55045;49.410;11.030;2022-09-09T04:33:19;5.00;;;2.92;;
68225;SDS011;55045;49.410;11.030;2022-09-09T04:36:29;4.75;;;2.90;;
68225;SDS011;55045;49.410;11.030;2022-09-09T04:39:36;2.80;;;2.53;;
68225;SDS011;55045;49.410;11.030;2022-09-09T04:42:40;5.70;;;3.03;;
68225;SDS011;55045;49.410;11.030;2022-09-09T04:45:48;4.20;;;3.00;;
68225;SDS011;55045;49.410;11.030;2022-09-09T04:52:04;3.75;;;3.15;;
68225;SDS011;55045;49.410;11.030;2022-09-09T04:55:09;4.72;;;3.03;;
68225;SDS011;55045;49.410;11.030;2022-09-09T04:58:17;3.00;;;2.70;;
68225;SDS011;55045;49.410;11.030;2022-09-09T05:01:24;4.80;;;2.88;;
68225;SDS011;55045;49.410;11.030;2022-09-09T05:07:36;3.50;;;2.45;;
68225;SDS011;55045;49.410;11.030;2022-09-09T05:10:40;4.72;;;2.95;;
68225;SDS011;55045;49.410;11.030;2022-09-09T05:13:44;5.20;;;3.25;;
68225;SDS011;55045;49.410;11.030;2022-09-09T05:16:48;6.63;;;3.25;;
68225;SDS011;55045;49.410;11.030;2022-09-09T05:19:51;4.70;;;3.58;;
68225;SDS011;55045;49.410;11.030;2022-09-09T05:22:57;6.05;;;3.08;;
68225;SDS011;55045;49.410;11.030;2022-09-09T05:26:03;3.15;;;2.72;;
68225;SDS011;55045;49.410;11.030;2022-09-09T05:29:07;6.57;;;3.10;;
68225;SDS011;55045;49.410;11.030;2022-09-09T05:32:10;3.92;;;3.22;;
68225;SDS011;55045;49.410;11.030;2022-09-09T05:35:18;4.53;;;2.95;;
68225;SDS011;55045;49.410;11.030;2022-09-09T05:38:24;2.72;;;2.50;;
68225;SDS011;55045;49.410;11.030;2022-09-09T05:41:37;5.57;;;2.67;;
68225;SDS011;55045;49.410;11.030;2022-09-09T05:44:43;5.70;;;2.80;;
68225;SDS011;55045;49.410;11.030;2022-09-09T05:47:51;5.55;;;2.88;;
68225;SDS011;55045;49.410;11.030;2022-09-09T05:50:55;5.25;;;2.80;;
68225;SDS011;55045;49.410;11.030;2022-09-09T05:54:07;5.80;;;2.90;;
68225;SDS011;55045;49.410;11.030;2022-09-09T05:57:17;5.07;;;3.17;;
68225;SDS011;55045;49.410;11.030;2022-09-09T06:00:21;4.55;;;3.15;;
68225;SDS011;55045;49.410;11.030;2022-09-09T06:03:24;6.40;;;3.38;;
68225;SDS011;55045;49.410;11.030;2022-09-09T06:06:31;8.20;;;3.03;;
68225;SDS011;55045;49.410;11.030;2022-09-09T06:09:43;4.50;;;2.97;;
68225;SDS011;55045;49.410;11.030;2022-09-09T06:12:47;3.58;;;2.47;;
68225;SDS011;55045;49.410;11.030;2022-09-09T06:15:50;3.83;;;2.80;;
68225;SDS011;55045;49.410;11.030;2022-09-09T06:18:55;5.20;;;2.70;;
68225;SDS011;55045;49.410;11.030;2022-09-09T06:22:00;5.45;;;2.63;;
68225;SDS011;55045;49.410;11.030;2022-09-09T06:25:08;2.42;;;2.22;;
68225;SDS011;55045;49.410;11.030;2022-09-09T06:28:13;3.87;;;2.40;;
68225;SDS011;55045;49.410;11.030;2022-09-09T06:31:18;6.63;;;2.63;;
68225;SDS011;55045;49.410;11.030;2022-09-09T06:38:11;5.43;;;2.80;;
68225;SDS011;55045;49.410;11.030;2022-09-09T06:41:16;4.63;;;2.38;;
68225;SDS011;55045;49.410;11.030;2022-09-09T06:44:20;3.00;;;2.10;;
68225;SDS011;55045;49.410;11.030;2022-09-09T06:47:24;6.28;;;2.33;;
68225;SDS011;55045;49.410;11.030;2022-09-09T06:50:30;4.38;;;2.05;;
68225;SDS011;55045;49.410;11.030;2022-09-09T06:53:34;5.03;;;2.30;;
68225;SDS011;55045;49.410;11.030;2022-09-09T06:56:41;3.97;;;2.80;;
68225;SDS011;55045;49.410;11.030;2022-09-09T06:59:55;2.33;;;2.10;;
68225;SDS011;55045;49.410;11.030;2022-09-09T07:02:59;7.82;;;2.00;;
68225;SDS011;55045;49.410;11.030;2022-09-09T07:06:03;4.53;;;2.20;;
68225;SDS011;55045;49.410;11.030;2022-09-09T07:09:07;4.78;;;2.20;;
68225;SDS011;55045;49.410;11.030;2022-09-09T07:12:15;6.22;;;2.15;;
68225;SDS011;55045;49.410;11.030;2022-09-09T07:15:26;4.75;;;2.25;;
68225;SDS011;55045;49.410;11.030;2022-09-09T07:18:29;5.32;;;2.03;;
68225;SDS011;55045;49.410;11.030;2022-09-09T07:21:33;5.88;;;2.10;;
68225;SDS011;55045;49.410;11.030;2022-09-09T07:24:36;2.50;;;2.05;;
68225;SDS011;55045;49.410;11.030;2022-09-09T07:27:42;3.83;;;2.10;;
68225;SDS011;55045;49.410;11.030;2022-09-09T07:30:52;5.05;;;2.00;;
68225;SDS011;55045;49.410;11.030;2022-09-09T07:33:57;5.65;;;2.40;;
68225;SDS011;55045;49.410;11.030;2022-09-09T07:37:01;2.53;;;1.90;;
68225;SDS011;55045;49.410;11.030;2022-09-09T07:40:06;3.95;;;2.10;;
68225;SDS011;55045;49.410;11.030;2022-09-09T07:43:12;3.90;;;1.95;;
68225;SDS011;55045;49.410;11.030;2022-09-09T07:49:22;2.35;;;1.52;;
68225;SDS011;55045;49.410;11.030;2022-09-09T07:52:34;6.80;;;2.00;;
68225;SDS011;55045;49.410;11.030;2022-09-09T07:55:40;2.85;;;1.60;;
68225;SDS011;55045;49.410;11.030;2022-09-09T07:58:45;5.10;;;1.80;;
68225;SDS011;55045;49.410;11.030;2022-09-09T08:01:50;4.80;;;1.70;;
68225;SDS011;55045;49.410;11.030;2022-09-09T08:04:58;2.67;;;1.88;;
68225;SDS011;55045;49.410;11.030;2022-09-09T08:08:02;2.05;;;1.40;;
68225;SDS011;55045;49.410;11.030;2022-09-09T08:11:07;3.05;;;1.40;;
68225;SDS011;55045;49.410;11.030;2022-09-09T08:14:13;2.83;;;1.58;;
68225;SDS011;55045;49.410;11.030;2022-09-09T08:17:17;5.40;;;1.60;;
68225;SDS011;55045;49.410;11.030;2022-09-09T08:20:21;2.72;;;1.40;;
68225;SDS011;55045;49.410;11.030;2022-09-09T08:23:24;1.58;;;1.30;;
68225;SDS011;55045;49.410;11.030;2022-09-09T08:26:29;3.38;;;1.92;;
68225;SDS011;55045;49.410;11.030;2022-09-09T08:29:35;2.65;;;1.10;;
68225;SDS011;55045;49.410;11.030;2022-09-09T08:32:40;3.40;;;1.20;;
68225;SDS011;55045;49.410;11.030;2022-09-09T08:35:49;4.50;;;1.17;;
68225;SDS011;55045;49.410;11.030;2022-09-09T08:38:54;2.67;;;1.00;;
68225;SDS011;55045;49.410;11.030;2022-09-09T08:45:34;1.65;;;0.90;;
68225;SDS011;55045;49.410;11.030;2022-09-09T08:48:48;1.73;;;1.10;;
68225;SDS011;55045;49.410;11.030;2022-09-09T08:51:58;2.28;;;0.88;;
68225;SDS011;55045;49.410;11.030;2022-09-09T08:55:20;1.67;;;1.20;;
68225;SDS011;55045;49.410;11.030;2022-09-09T08:58:29;3.85;;;1.13;;
68225;SDS011;55045;49.410;11.030;2022-09-09T09:01:44;4.70;;;1.45;;
68225;SDS011;55045;49.410;11.030;2022-09-09T09:05:06;1.33;;;0.88;;
68225;SDS011;55045;49.410;11.030;2022-09-09T09:08:20;0.85;;;0.70;;
68225;SDS011;55045;49.410;11.030;2022-09-09T09:11:36;1.23;;;0.82;;
68225;SDS011;55045;49.410;11.030;2022-09-09T09:14:41;1.30;;;1.00;;
68225;SDS011;55045;49.410;11.030;2022-09-09T09:17:51;1.42;;;0.82;;
68225;SDS011;55045;49.410;11.030;2022-09-09T09:20:57;2.60;;;0.80;;
68225;SDS011;55045;49.410;11.030;2022-09-09T09:24:09;2.88;;;0.93;;
68225;SDS011;55045;49.410;11.030;2022-09-09T09:27:26;0.88;;;0.60;;
68225;SDS011;55045;49.410;11.030;2022-09-09T09:34:15;2.92;;;0.90;;
68225;SDS011;55045;49.410;11.030;2022-09-09T09:37:22;3.13;;;0.82;;
68225;SDS011;55045;49.410;11.030;2022-09-09T09:40:33;1.63;;;0.70;;
68225;SDS011;55045;49.410;11.030;2022-09-09T09:43:37;1.38;;;0.90;;
68225;SDS011;55045;49.410;11.030;2022-09-09T09:46:47;3.95;;;0.90;;
68225;SDS011;55045;49.410;11.030;2022-09-09T09:49:53;2.67;;;0.73;;
68225;SDS011;55045;49.410;11.030;2022-09-09T09:52:58;1.65;;;1.02;;
68225;SDS011;55045;49.410;11.030;2022-09-09T09:59:19;3.67;;;1.02;;
68225;SDS011;55045;49.410;11.030;2022-09-09T10:02:40;2.00;;;0.82;;
68225;SDS011;55045;49.410;11.030;2022-09-09T10:05:52;1.98;;;0.80;;
68225;SDS011;55045;49.410;11.030;2022-09-09T10:08:56;1.67;;;1.00;;
68225;SDS011;55045;49.410;11.030;2022-09-09T10:12:03;2.22;;;0.90;;
68225;SDS011;55045;49.410;11.030;2022-09-09T10:15:22;1.27;;;0.90;;
68225;SDS011;55045;49.410;11.030;2022-09-09T10:18:36;4.72;;;1.00;;
68225;SDS011;55045;49.410;11.030;2022-09-09T10:21:53;1.52;;;0.80;;
68225;SDS011;55045;49.410;11.030;2022-09-09T10:25:15;2.08;;;1.00;;
68225;SDS011;55045;49.410;11.030;2022-09-09T10:28:33;1.58;;;1.20;;
68225;SDS011;55045;49.410;11.030;2022-09-09T10:32:00;2.10;;;1.25;;
68225;SDS011;55045;49.410;11.030;2022-09-09T10:35:20;2.45;;;1.00;;
68225;SDS011;55045;49.410;11.030;2022-09-09T10:38:34;1.85;;;0.85;;
68225;SDS011;55045;49.410;11.030;2022-09-09T10:41:44;3.35;;;1.10;;
68225;SDS011;55045;49.410;11.030;2022-09-09T10:44:59;1.63;;;0.70;;
68225;SDS011;55045;49.410;11.030;2022-09-09T10:48:19;1.17;;;1.05;;
68225;SDS011;55045;49.410;11.030;2022-09-09T10:51:36;1.45;;;0.77;;
68225;SDS011;55045;49.410;11.030;2022-09-09T10:54:51;1.58;;;0.88;;
68225;SDS011;55045;49.410;11.030;2022-09-09T10:58:00;1.00;;;0.90;;
68225;SDS011;55045;49.410;11.030;2022-09-09T11:01:08;1.48;;;0.82;;
68225;SDS011;55045;49.410;11.030;2022-09-09T11:04:19;4.45;;;0.98;;
68225;SDS011;55045;49.410;11.030;2022-09-09T11:07:26;1.20;;;0.70;;
68225;SDS011;55045;49.410;11.030;2022-09-09T11:10:39;2.70;;;0.80;;
68225;SDS011;55045;49.410;11.030;2022-09-09T11:13:49;3.60;;;0.90;;
68225;SDS011;55045;49.410;11.030;2022-09-09T11:16:59;1.95;;;0.98;;
68225;SDS011;55045;49.410;11.030;2022-09-09T11:20:05;1.42;;;0.80;;
68225;SDS011;55045;49.410;11.030;2022-09-09T11:23:10;3.45;;;0.85;;
68225;SDS011;55045;49.410;11.030;2022-09-09T11:26:18;1.63;;;0.73;;
68225;SDS011;55045;49.410;11.030;2022-09-09T11:29:52;5.03;;;1.10;;
68225;SDS011;55045;49.410;11.030;2022-09-09T11:33:45;3.88;;;0.95;;
68225;SDS011;55045;49.410;11.030;2022-09-09T11:37:02;2.92;;;0.70;;
68225;SDS011;55045;49.410;11.030;2022-09-09T11:40:21;1.60;;;0.90;;
68225;SDS011;55045;49.410;11.030;2022-09-09T11:43:34;2.15;;;0.75;;
68225;SDS011;55045;49.410;11.030;2022-09-09T11:46:45;4.22;;;0.77;;
68225;SDS011;55045;49.410;11.030;2022-09-09T11:49:53;0.95;;;0.70;;
68225;SDS011;55045;49.410;11.030;2022-09-09T11:53:17;0.77;;;0.77;;
68225;SDS011;55045;49.410;11.030;2022-09-09T11:56:25;2.50;;;1.15;;
68225;SDS011;55045;49.410;11.030;2022-09-09T11:59:31;2.15;;;0.77;;
68225;SDS011;55045;49.410;11.030;2022-09-09T12:02:37;0.75;;;0.70;;
68225;SDS011;55045;49.410;11.030;2022-09-09T12:05:51;2.15;;;0.70;;
68225;SDS011;55045;49.410;11.030;2022-09-09T12:08:56;1.45;;;0.70;;
68225;SDS011;55045;49.410;11.030;2022-09-09T12:12:21;2.70;;;0.80;;
68225;SDS011;55045;49.410;11.030;2022-09-09T12:15:31;2.45;;;0.80;;
68225;SDS011;55045;49.410;11.030;2022-09-09T12:18:36;1.75;;;0.70;;
68225;SDS011;55045;49.410;11.030;2022-09-09T12:21:43;1.20;;;0.55;;
68225;SDS011;55045;49.410;11.030;2022-09-09T12:24:53;1.85;;;0.70;;
68225;SDS011;55045;49.410;11.030;2022-09-09T12:28:04;1.05;;;0.65;;
68225;SDS011;55045;49.410;11.030;2022-09-09T12:31:14;0.77;;;0.60;;
68225;SDS011;55045;49.410;11.030;2022-09-09T12:34:30;1.13;;;0.57;;
68225;SDS011;55045;49.410;11.030;2022-09-09T12:37:41;3.38;;;0.65;;
68225;SDS011;55045;49.410;11.030;2022-09-09T12:40:53;0.70;;;0.70;;
68225;SDS011;55045;49.410;11.030;2022-09-09T12:44:03;2.25;;;1.20;;
68225;SDS011;55045;49.410;11.030;2022-09-09T12:47:11;2.45;;;1.25;;
68225;SDS011;55045;49.410;11.030;2022-09-09T12:50:19;1.33;;;0.80;;
68225;SDS011;55045;49.410;11.030;2022-09-09T12:53:25;3.33;;;0.80;;
68225;SDS011;55045;49.410;11.030;2022-09-09T12:56:31;1.20;;;0.70;;
68225;SDS011;55045;49.410;11.030;2022-09-09T12:59:36;2.58;;;0.90;;
68225;SDS011;55045;49.410;11.030;2022-09-09T13:02:50;1.50;;;0.80;;
68225;SDS011;55045;49.410;11.030;2022-09-09T13:05:57;2.70;;;0.80;;
68225;SDS011;55045;49.410;11.030;2022-09-09T13:09:03;0.77;;;0.70;;
68225;SDS011;55045;49.410;11.030;2022-09-09T13:12:06;2.42;;;0.82;;
68225;SDS011;55045;49.410;11.030;2022-09-09T13:15:19;2.17;;;0.80;;
68225;SDS011;55045;49.410;11.030;2022-09-09T13:18:26;1.20;;;0.68;;
68225;SDS011;55045;49.410;11.030;2022-09-09T13:21:33;1.38;;;0.60;;
68225;SDS011;55045;49.410;11.030;2022-09-09T13:24:37;3.42;;;0.85;;
68225;SDS011;55045;49.410;11.030;2022-09-09T13:27:41;1.02;;;0.80;;
68225;SDS011;55045;49.410;11.030;2022-09-09T13:30:54;2.88;;;1.02;;
68225;SDS011;55045;49.410;11.030;2022-09-09T13:34:11;2.85;;;0.82;;
68225;SDS011;55045;49.410;11.030;2022-09-09T13:37:18;1.50;;;0.70;;
68225;SDS011;55045;49.410;11.030;2022-09-09T13:40:27;1.25;;;0.65;;
68225;SDS011;55045;49.410;11.030;2022-09-09T13:43:34;2.95;;;0.60;;
68225;SDS011;55045;49.410;11.030;2022-09-09T13:46:40;0.70;;;0.63;;
68225;SDS011;55045;49.410;11.030;2022-09-09T13:49:46;3.28;;;0.60;;
68225;SDS011;55045;49.410;11.030;2022-09-09T13:52:50;2.58;;;0.75;;
68225;SDS011;55045;49.410;11.030;2022-09-09T13:55:54;0.80;;;0.50;;
68225;SDS011;55045;49.410;11.030;2022-09-09T13:58:58;1.10;;;0.65;;
68225;SDS011;55045;49.410;11.030;2022-09-09T14:02:01;1.42;;;0.60;;
68225;SDS011;55045;49.410;11.030;2022-09-09T14:05:07;1.67;;;0.80;;
68225;SDS011;55045;49.410;11.030;2022-09-09T14:08:12;2.00;;;0.77;;
68225;SDS011;55045;49.410;11.030;2022-09-09T14:11:22;0.77;;;0.73;;
68225;SDS011;55045;49.410;11.030;2022-09-09T14:14:25;2.03;;;1.05;;
68225;SDS011;55045;49.410;11.030;2022-09-09T14:17:28;3.38;;;0.90;;
68225;SDS011;55045;49.410;11.030;2022-09-09T14:20:34;4.43;;;0.88;;
68225;SDS011;55045;49.410;11.030;2022-09-09T14:23:37;3.13;;;0.60;;
68225;SDS011;55045;49.410;11.030;2022-09-09T14:26:40;2.30;;;0.80;;
68225;SDS011;55045;49.410;11.030;2022-09-09T14:29:44;1.67;;;1.00;;
68225;SDS011;55045;49.410;11.030;2022-09-09T14:32:47;2.17;;;0.70;;
68225;SDS011;55045;49.410;11.030;2022-09-09T14:35:56;8.52;;;1.10;;
68225;SDS011;55045;49.410;11.030;2022-09-09T14:38:59;0.75;;;0.60;;
68225;SDS011;55045;49.410;11.030;2022-09-09T14:42:03;3.20;;;1.00;;
68225;SDS011;55045;49.410;11.030;2022-09-09T14:45:07;2.90;;;0.90;;
68225;SDS011;55045;49.410;11.030;2022-09-09T14:48:11;2.60;;;0.73;;
68225;SDS011;55045;49.410;11.030;2022-09-09T14:51:16;2.33;;;0.73;;
68225;SDS011;55045;49.410;11.030;2022-09-09T14:54:21;1.77;;;0.70;;
68225;SDS011;55045;49.410;11.030;2022-09-09T14:57:24;9.55;;;1.00;;
68225;SDS011;55045;49.410;11.030;2022-09-09T15:00:27;1.35;;;1.00;;
68225;SDS011;55045;49.410;11.030;2022-09-09T15:03:30;2.35;;;1.00;;
68225;SDS011;55045;49.410;11.030;2022-09-09T15:06:35;1.80;;;0.82;;
68225;SDS011;55045;49.410;11.030;2022-09-09T15:09:40;4.90;;;1.00;;
68225;SDS011;55045;49.410;11.030;2022-09-09T15:12:43;1.63;;;0.82;;
68225;SDS011;55045;49.410;11.030;2022-09-09T15:15:46;4.75;;;1.00;;
68225;SDS011;55045;49.410;11.030;2022-09-09T15:18:52;2.40;;;0.85;;
68225;SDS011;55045;49.410;11.030;2022-09-09T15:21:58;2.67;;;0.75;;
68225;SDS011;55045;49.410;11.030;2022-09-09T15:25:02;2.97;;;0.70;;
68225;SDS011;55045;49.410;11.030;2022-09-09T15:28:05;2.80;;;0.85;;
68225;SDS011;55045;49.410;11.030;2022-09-09T15:34:15;1.92;;;0.93;;
68225;SDS011;55045;49.410;11.030;2022-09-09T15:37:19;1.00;;;0.88;;
68225;SDS011;55045;49.410;11.030;2022-09-09T15:40:22;1.63;;;0.70;;
68225;SDS011;55045;49.410;11.030;2022-09-09T15:43:25;2.55;;;0.73;;
68225;SDS011;55045;49.410;11.030;2022-09-09T15:46:30;0.60;;;0.60;;
68225;SDS011;55045;49.410;11.030;2022-09-09T15:49:36;2.85;;;0.85;;
68225;SDS011;55045;49.410;11.030;2022-09-09T15:52:40;1.30;;;0.85;;
68225;SDS011;55045;49.410;11.030;2022-09-09T15:55:43;1.10;;;0.85;;
68225;SDS011;55045;49.410;11.030;2022-09-09T15:58:49;3.35;;;0.90;;
68225;SDS011;55045;49.410;11.030;2022-09-09T16:01:54;1.15;;;0.70;;
68225;SDS011;55045;49.410;11.030;2022-09-09T16:04:59;2.58;;;0.98;;
68225;SDS011;55045;49.410;11.030;2022-09-09T16:08:03;1.70;;;0.50;;
68225;SDS011;55045;49.410;11.030;2022-09-09T16:11:06;0.55;;;0.50;;
68225;SDS011;55045;49.410;11.030;2022-09-09T16:14:13;2.42;;;0.60;;
68225;SDS011;55045;49.410;11.030;2022-09-09T16:17:19;4.60;;;0.80;;
68225;SDS011;55045;49.410;11.030;2022-09-09T16:20:24;1.48;;;0.57;;
68225;SDS011;55045;49.410;11.030;2022-09-09T16:23:28;1.23;;;0.43;;
68225;SDS011;55045;49.410;11.030;2022-09-09T16:26:32;0.45;;;0.40;;
68225;SDS011;55045;49.410;11.030;2022-09-09T16:29:38;1.10;;;0.60;;
68225;SDS011;55045;49.410;11.030;2022-09-09T16:32:41;1.45;;;0.60;;
68225;SDS011;55045;49.410;11.030;2022-09-09T16:35:46;1.20;;;0.60;;
68225;SDS011;55045;49.410;11.030;2022-09-09T16:38:51;1.38;;;0.50;;
68225;SDS011;55045;49.410;11.030;2022-09-09T16:41:56;1.02;;;0.60;;
68225;SDS011;55045;49.410;11.030;2022-09-09T16:45:01;0.57;;;0.52;;
68225;SDS011;55045;49.410;11.030;2022-09-09T16:48:04;1.52;;;1.02;;
68225;SDS011;55045;49.410;11.030;2022-09-09T16:51:15;0.82;;;0.80;;
68225;SDS011;55045;49.410;11.030;2022-09-09T16:54:24;2.03;;;0.77;;
68225;SDS011;55045;49.410;11.030;2022-09-09T16:57:28;2.00;;;0.90;;
68225;SDS011;55045;49.410;11.030;2022-09-09T17:00:32;0.68;;;0.50;;
68225;SDS011;55045;49.410;11.030;2022-09-09T17:03:35;0.85;;;0.60;;
68225;SDS011;55045;49.410;11.030;2022-09-09T17:06:40;0.88;;;0.77;;
68225;SDS011;55045;49.410;11.030;2022-09-09T17:09:44;0.50;;;0.50;;
68225;SDS011;55045;49.410;11.030;2022-09-09T17:12:47;1.75;;;0.43;;
68225;SDS011;55045;49.410;11.030;2022-09-09T17:15:50;1.52;;;0.60;;
68225;SDS011;55045;49.410;11.030;2022-09-09T17:18:54;1.60;;;0.60;;
68225;SDS011;55045;49.410;11.030;2022-09-09T17:21:59;1.85;;;0.50;;
68225;SDS011;55045;49.410;11.030;2022-09-09T17:25:18;2.85;;;0.60;;
68225;SDS011;55045;49.410;11.030;2022-09-09T17:28:25;1.08;;;0.60;;
68225;SDS011;55045;49.410;11.030;2022-09-09T17:34:35;2.67;;;0.70;;
68225;SDS011;55045;49.410;11.030;2022-09-09T17:37:41;1.40;;;0.98;;
68225;SDS011;55045;49.410;11.030;2022-09-09T17:40:44;2.72;;;1.10;;
68225;SDS011;55045;49.410;11.030;2022-09-09T17:43:47;1.70;;;1.10;;
68225;SDS011;55045;49.410;11.030;2022-09-09T17:46:52;1.90;;;0.90;;
68225;SDS011;55045;49.410;11.030;2022-09-09T17:49:56;1.48;;;0.90;;
68225;SDS011;55045;49.410;11.030;2022-09-09T17:53:01;1.60;;;0.73;;
68225;SDS011;55045;49.410;11.030;2022-09-09T17:56:05;2.08;;;0.90;;
68225;SDS011;55045;49.410;11.030;2022-09-09T17:59:10;1.90;;;0.90;;
68225;SDS011;55045;49.410;11.030;2022-09-09T18:02:15;3.72;;;0.95;;
68225;SDS011;55045;49.410;11.030;2022-09-09T18:05:18;2.72;;;1.25;;
68225;SDS011;55045;49.410;11.030;2022-09-09T18:08:23;4.03;;;0.77;;
68225;SDS011;55045;49.410;11.030;2022-09-09T18:11:28;0.82;;;0.60;;
68225;SDS011;55045;49.410;11.030;2022-09-09T18:14:33;1.30;;;0.80;;
68225;SDS011;55045;49.410;11.030;2022-09-09T18:17:36;0.90;;;0.60;;
68225;SDS011;55045;49.410;11.030;2022-09-09T18:20:39;4.78;;;1.02;;
68225;SDS011;55045;49.410;11.030;2022-09-09T18:23:45;0.52;;;0.47;;
68225;SDS011;55045;49.410;11.030;2022-09-09T18:26:50;1.33;;;0.80;;
68225;SDS011;55045;49.410;11.030;2022-09-09T18:29:54;2.58;;;0.80;;
68225;SDS011;55045;49.410;11.030;2022-09-09T18:32:57;3.38;;;0.93;;
68225;SDS011;55045;49.410;11.030;2022-09-09T18:36:02;2.95;;;0.70;;
68225;SDS011;55045;49.410;11.030;2022-09-09T18:39:09;0.63;;;0.50;;
68225;SDS011;55045;49.410;11.030;2022-09-09T18:42:13;2.53;;;0.80;;
68225;SDS011;55045;49.410;11.030;2022-09-09T18:45:16;3.00;;;0.75;;
68225;SDS011;55045;49.410;11.030;2022-09-09T18:48:20;2.03;;;0.98;;
68225;SDS011;55045;49.410;11.030;2022-09-09T18:51:40;3.80;;;0.70;;
68225;SDS011;55045;49.410;11.030;2022-09-09T18:54:50;1.52;;;0.90;;
68225;SDS011;55045;49.410;11.030;2022-09-09T18:57:54;1.92;;;1.20;;
68225;SDS011;55045;49.410;11.030;2022-09-09T19:00:59;2.28;;;0.98;;
68225;SDS011;55045;49.410;11.030;2022-09-09T19:04:04;1.17;;;0.90;;
68225;SDS011;55045;49.410;11.030;2022-09-09T19:07:09;4.28;;;0.90;;
68225;SDS011;55045;49.410;11.030;2022-09-09T19:10:14;1.38;;;1.00;;